Portada
METAR-TAF:

METAR-TAF

Aeroports :

Belgaum, Índia

latitud: 15-51-33N, longitud: 74-37-03E, altitud: 758 m

Observació

L'informe es va fer fa 38 minuts, a les 02:30 UTC
Vent calma
Temperatura 19°C
Humitat 88%
Pressió 1017 hPa
Visibilitat: 6000 m

METAR: VOBM 050230Z 00000KT 6000 NSC 19/17 Q1017

Hora: 08:38 (03:08 UTC)

Pronòstic

L'informe es va fer fa 1 hora i 8 minuts, a les 02:00 UTC
Pronòstic vàlid del 05 a les 03 UTC al 05 a les 12 UTC
Vent 10 kt del Est/Nord-Est
Visibilitat: 8000 m
Escasses núvols a una alçada de 1500 ft

TAF: VOBM 050200Z 0503/0512 07010KT 8000 FEW015

Observacions i pronòstics meteorològics de més de 4000 aeroports (METAR i TAF).

Les estacions disponibles són els punts grocs i vermells al mapa.

Posi el ratolí al punt desitjat per veure el nom de l'estació.

Feu clic per veure les observacions i els pronòstics meteorològics.

Per canviar el mapa: feu clic els botons verds amb una creu de color negre per apropar; al botó verd amb un guió per allunyar la imatge; o en les fletxes verdes per a mapes adjacents.


METAR-TAF: